createdAt,value
2022-11-22T00:00:25.559Z,13.63
2022-11-22T00:02:52.394Z,14.67
2022-11-22T00:05:19.475Z,14.63
2022-11-22T00:07:46.169Z,13.63
2022-11-22T00:10:16.313Z,13.20
2022-11-22T00:12:44.484Z,13.20
2022-11-22T00:15:11.797Z,14.23
2022-11-22T00:17:39.112Z,13.23
2022-11-22T00:20:07.908Z,12.50
2022-11-22T00:22:38.523Z,12.80
2022-11-22T00:25:08.420Z,11.73
2022-11-22T00:27:35.175Z,12.10
2022-11-22T00:30:01.860Z,12.03
2022-11-22T00:32:28.482Z,13.30
2022-11-22T00:34:55.161Z,13.40
2022-11-22T00:37:21.876Z,12.40
2022-11-22T00:39:48.467Z,11.50
2022-11-22T00:42:15.160Z,12.47
2022-11-22T00:44:41.784Z,11.07
2022-11-22T00:47:08.380Z,10.73
2022-11-22T00:49:35.000Z,12.07
2022-11-22T00:52:01.658Z,12.27
2022-11-22T00:54:28.809Z,11.67
2022-11-22T00:56:55.420Z,12.47
2022-11-22T00:59:22.018Z,12.10
2022-11-22T01:01:48.700Z,12.47
2022-11-22T01:04:15.326Z,12.57
2022-11-22T01:06:41.956Z,13.00
2022-11-22T01:09:08.568Z,12.83
2022-11-22T01:11:35.175Z,12.83
2022-11-22T01:14:02.082Z,12.40
2022-11-22T01:16:28.689Z,12.07
2022-11-22T01:18:55.358Z,12.23
2022-11-22T01:21:21.998Z,11.47
2022-11-22T01:23:48.666Z,12.43
2022-11-22T01:26:15.393Z,12.00
2022-11-22T01:28:41.991Z,12.63
2022-11-22T01:31:09.414Z,13.63
2022-11-22T01:33:36.127Z,11.43
2022-11-22T01:36:02.763Z,11.93
2022-11-22T01:38:29.388Z,11.90
2022-11-22T01:40:55.963Z,11.83
2022-11-22T01:43:25.146Z,11.40
2022-11-22T01:45:56.883Z,11.63
2022-11-22T01:48:38.539Z,11.63
2022-11-22T01:51:25.674Z,10.50
2022-11-22T01:53:52.575Z,11.10
2022-11-22T01:56:20.714Z,10.33
2022-11-22T01:58:50.357Z,12.10
2022-11-22T02:01:17.112Z,11.70
2022-11-22T02:03:46.540Z,10.27
2022-11-22T02:06:13.870Z,11.93
2022-11-22T02:08:47.476Z,12.30
2022-11-22T02:11:14.066Z,11.80
2022-11-22T02:13:42.826Z,12.33
2022-11-22T02:16:10.597Z,11.60
2022-11-22T02:18:37.735Z,11.43
2022-11-22T02:21:04.889Z,11.70
2022-11-22T02:23:36.912Z,10.93
2022-11-22T02:26:03.973Z,10.97
2022-11-22T02:28:33.460Z,10.07
2022-11-22T02:31:00.210Z,11.50
2022-11-22T02:33:26.866Z,11.33
2022-11-22T02:35:53.650Z,11.37
2022-11-22T02:38:26.213Z,11.47
2022-11-22T02:40:55.834Z,11.17
2022-11-22T02:43:38.299Z,11.10
2022-11-22T02:46:12.831Z,11.53
2022-11-22T02:48:43.546Z,12.17
2022-11-22T02:51:10.577Z,12.43
2022-11-22T02:53:37.458Z,14.77
2022-11-22T02:56:04.132Z,10.60
2022-11-22T02:58:30.766Z,11.63
2022-11-22T03:00:57.856Z,12.47
2022-11-22T03:03:24.496Z,13.33
2022-11-22T03:05:51.120Z,12.70
2022-11-22T03:08:17.760Z,12.87
2022-11-22T03:10:44.387Z,11.30
2022-11-22T03:13:11.123Z,13.40
2022-11-22T03:15:37.771Z,12.40
2022-11-22T03:18:04.794Z,12.60
2022-11-22T03:20:32.766Z,13.73
2022-11-22T03:23:02.652Z,13.20
2022-11-22T03:25:29.300Z,12.97
2022-11-22T03:27:55.941Z,13.43
2022-11-22T03:30:22.583Z,14.50
2022-11-22T03:32:49.238Z,12.90
2022-11-22T03:35:15.940Z,13.17
2022-11-22T03:37:42.558Z,13.80
2022-11-22T03:40:09.546Z,14.10
2022-11-22T03:42:36.163Z,11.77
2022-11-22T03:45:02.861Z,14.73
2022-11-22T03:47:29.572Z,12.67
2022-11-22T03:49:56.179Z,14.43
2022-11-22T03:52:22.997Z,14.47
2022-11-22T03:54:50.525Z,12.80
2022-11-22T03:57:17.504Z,13.80
2022-11-22T03:59:44.199Z,14.50
2022-11-22T04:02:10.894Z,13.57
2022-11-22T04:04:37.572Z,14.47
2022-11-22T04:07:04.211Z,13.57
2022-11-22T04:09:31.168Z,15.00
2022-11-22T04:11:57.988Z,15.03
2022-11-22T04:14:43.213Z,13.13
2022-11-22T04:17:13.492Z,13.63
2022-11-22T04:20:00.047Z,14.53
2022-11-22T04:22:26.653Z,16.47
2022-11-22T04:25:11.890Z,14.00
2022-11-22T04:27:38.474Z,14.87
2022-11-22T04:30:05.474Z,13.33
2022-11-22T04:32:47.183Z,13.93
2022-11-22T04:35:18.557Z,15.60
2022-11-22T04:37:51.450Z,15.70
2022-11-22T04:40:18.101Z,14.30
2022-11-22T04:43:03.458Z,14.13
2022-11-22T04:45:30.347Z,15.97
2022-11-22T04:47:59.847Z,14.47
2022-11-22T04:50:58.072Z,13.97
2022-11-22T04:53:25.862Z,14.20
2022-11-22T04:55:52.483Z,14.57
2022-11-22T04:58:20.335Z,14.33
2022-11-22T05:00:47.627Z,15.23
2022-11-22T05:03:14.511Z,14.73
2022-11-22T05:05:43.010Z,13.97
2022-11-22T05:08:10.160Z,14.17
2022-11-22T05:10:56.619Z,15.53
2022-11-22T05:13:37.347Z,13.97
2022-11-22T05:16:05.697Z,13.47
2022-11-22T05:18:32.578Z,15.13
2022-11-22T05:21:00.723Z,15.57
2022-11-22T05:23:45.943Z,14.63
2022-11-22T05:26:12.554Z,15.30
2022-11-22T05:28:39.936Z,15.03
2022-11-22T05:31:12.524Z,16.17
2022-11-22T05:33:40.806Z,16.13
2022-11-22T05:36:07.863Z,15.17
2022-11-22T05:38:35.779Z,16.07
2022-11-22T05:41:05.821Z,15.07
2022-11-22T05:43:33.439Z,16.10
2022-11-22T05:46:09.018Z,16.33
2022-11-22T05:48:36.644Z,15.30
2022-11-22T05:51:07.425Z,15.33
2022-11-22T05:53:35.380Z,16.03
2022-11-22T05:56:09.659Z,17.50
2022-11-22T06:01:08.168Z,14.67
2022-11-22T06:03:35.802Z,16.57
2022-11-22T06:06:03.300Z,17.07
2022-11-22T06:08:31.103Z,15.70
2022-11-22T06:11:05.102Z,18.17
2022-11-22T06:13:39.276Z,16.00
2022-11-22T06:16:06.985Z,16.67
2022-11-22T06:18:33.978Z,18.53
2022-11-22T06:21:02.268Z,16.23
2022-11-22T06:23:29.505Z,16.80
2022-11-22T06:26:04.277Z,16.27
2022-11-22T06:28:32.344Z,17.53
2022-11-22T06:31:15.061Z,17.80
2022-11-22T06:33:42.372Z,18.77
2022-11-22T06:36:13.051Z,19.67
2022-11-22T06:38:40.787Z,21.20
2022-11-22T06:41:18.549Z,17.67
2022-11-22T06:43:49.028Z,20.97
2022-11-22T06:46:19.499Z,19.43
2022-11-22T06:48:47.125Z,18.20
2022-11-22T06:51:20.116Z,19.23
2022-11-22T06:53:48.811Z,16.50
2022-11-22T06:56:27.050Z,19.10
2022-11-22T06:58:54.004Z,19.60
2022-11-22T07:01:28.431Z,21.13
2022-11-22T07:03:58.327Z,21.77
2022-11-22T07:06:27.147Z,19.63
2022-11-22T07:08:54.273Z,17.30
2022-11-22T07:11:26.302Z,21.00
2022-11-22T07:13:53.966Z,20.77
2022-11-22T07:16:21.048Z,20.77
2022-11-22T07:18:48.329Z,21.00
2022-11-22T07:21:20.073Z,20.43
2022-11-22T07:23:48.645Z,21.47
2022-11-22T07:26:16.284Z,19.60
2022-11-22T07:28:43.159Z,19.27
2022-11-22T07:31:11.301Z,19.50
2022-11-22T07:33:38.331Z,19.33
2022-11-22T07:36:06.756Z,20.47
2022-11-22T07:38:33.967Z,19.50
2022-11-22T07:41:01.046Z,16.97
2022-11-22T07:43:28.422Z,20.97
2022-11-22T07:46:01.222Z,22.63
2022-11-22T07:48:27.837Z,19.63
2022-11-22T07:50:54.475Z,19.47
2022-11-22T07:53:21.333Z,18.20
2022-11-22T07:55:48.071Z,18.47
2022-11-22T07:58:14.753Z,17.90
2022-11-22T08:00:41.335Z,19.40
2022-11-22T08:03:08.726Z,17.43
2022-11-22T08:05:35.340Z,19.20
2022-11-22T08:08:01.945Z,18.67
2022-11-22T08:10:28.538Z,19.50
2022-11-22T08:12:59.123Z,21.43
2022-11-22T08:15:26.490Z,19.80
2022-11-22T08:17:53.331Z,18.50
2022-11-22T08:20:20.950Z,18.53
2022-11-22T08:22:47.609Z,19.03
2022-11-22T08:25:14.247Z,18.53
2022-11-22T08:27:41.641Z,19.03
2022-11-22T08:30:10.353Z,19.87
2022-11-22T08:32:36.959Z,19.63
2022-11-22T08:35:03.942Z,19.63
2022-11-22T08:37:30.591Z,18.80
2022-11-22T08:39:57.411Z,19.30
2022-11-22T08:42:23.997Z,21.33
2022-11-22T08:44:51.178Z,20.07
2022-11-22T08:47:17.810Z,18.30
2022-11-22T08:49:44.499Z,17.33
2022-11-22T08:52:11.242Z,19.87
2022-11-22T08:54:38.357Z,19.07
2022-11-22T08:57:05.435Z,20.97
2022-11-22T08:59:32.583Z,20.67
2022-11-22T09:01:59.750Z,21.23
2022-11-22T09:04:26.866Z,20.57
2022-11-22T09:09:40.304Z,19.50
2022-11-22T09:12:07.312Z,20.57
2022-11-22T09:14:34.017Z,20.40
2022-11-22T09:17:00.713Z,20.07
2022-11-22T09:19:27.310Z,20.63
2022-11-22T09:21:53.949Z,20.50
2022-11-22T09:24:20.609Z,19.93
2022-11-22T09:26:48.441Z,20.57
2022-11-22T09:29:16.033Z,23.43
2022-11-22T09:31:43.270Z,21.23
2022-11-22T09:34:10.017Z,19.60
2022-11-22T09:36:36.685Z,19.83
2022-11-22T09:39:03.427Z,21.47
2022-11-22T09:41:45.314Z,21.57
2022-11-22T09:44:21.229Z,23.47
2022-11-22T09:46:56.293Z,22.17
2022-11-22T09:49:39.075Z,22.07
2022-11-22T09:52:26.796Z,24.20
2022-11-22T09:55:00.005Z,22.00
2022-11-22T09:57:31.690Z,21.07
2022-11-22T10:00:15.770Z,21.93
2022-11-22T10:02:59.783Z,23.98
2022-11-22T10:05:32.156Z,24.52
2022-11-22T10:08:23.176Z,22.83
2022-11-22T10:10:52.608Z,22.53
2022-11-22T10:13:31.124Z,23.17
2022-11-22T10:16:03.900Z,22.97
2022-11-22T10:18:41.373Z,23.90
2022-11-22T10:21:13.098Z,25.20
2022-11-22T10:23:41.349Z,25.43
2022-11-22T10:26:21.810Z,21.97
2022-11-22T10:29:13.292Z,23.57
2022-11-22T10:31:58.696Z,24.87
2022-11-22T10:34:29.280Z,24.60
2022-11-22T10:37:07.500Z,22.70
2022-11-22T10:39:55.828Z,23.57
2022-11-22T10:42:28.527Z,25.13
2022-11-22T10:45:15.705Z,26.97
2022-11-22T10:47:56.461Z,24.90
2022-11-22T10:50:29.304Z,25.30
2022-11-22T10:53:01.977Z,26.00
2022-11-22T10:55:50.617Z,22.03
2022-11-22T10:58:20.141Z,25.77
2022-11-22T11:00:50.511Z,26.27
2022-11-22T11:03:35.953Z,33.43
2022-11-22T11:06:37.891Z,26.17
2022-11-22T11:09:55.182Z,28.30
2022-11-22T11:11:51.439Z,49.33
2022-11-22T11:14:24.788Z,30.03
2022-11-22T11:16:51.600Z,27.65
2022-11-22T11:19:20.219Z,33.83
2022-11-22T11:21:55.813Z,29.83
2022-11-22T11:24:22.407Z,25.53
2022-11-22T11:26:54.593Z,25.93
2022-11-22T11:29:24.203Z,27.97
2022-11-22T11:32:04.304Z,24.33
2022-11-22T11:34:31.101Z,22.77
2022-11-22T11:36:58.540Z,25.00
2022-11-22T11:39:29.940Z,27.97
2022-11-22T11:41:56.955Z,27.27
2022-11-22T11:44:33.271Z,26.10
2022-11-22T11:47:00.320Z,26.27
2022-11-22T11:49:29.302Z,26.23
2022-11-22T11:51:58.525Z,23.37
2022-11-22T11:54:41.685Z,23.33
2022-11-22T11:57:14.257Z,23.80
2022-11-22T11:59:40.791Z,27.07
2022-11-22T12:02:16.779Z,25.77
2022-11-22T12:04:57.593Z,29.70
2022-11-22T12:07:44.976Z,25.90
2022-11-22T12:10:56.071Z,25.83
2022-11-22T12:13:32.093Z,25.30
2022-11-22T12:16:12.721Z,25.17
2022-11-22T12:18:44.457Z,23.03
2022-11-22T12:21:30.768Z,35.87
2022-11-22T12:24:45.193Z,35.00
2022-11-22T12:27:10.059Z,30.97
2022-11-22T12:29:38.854Z,27.27
2022-11-22T12:32:11.113Z,36.27
2022-11-22T12:34:53.661Z,28.57
2022-11-22T12:37:34.587Z,28.50
2022-11-22T12:40:04.532Z,26.37
2022-11-22T12:43:08.388Z,25.63
2022-11-22T12:45:38.484Z,25.63
2022-11-22T12:48:08.917Z,24.43
2022-11-22T12:50:45.602Z,29.10
2022-11-22T12:53:15.280Z,26.47
2022-11-22T12:56:09.867Z,27.93
2022-11-22T12:58:47.203Z,25.45
2022-11-22T13:01:26.345Z,25.23
2022-11-22T13:04:01.899Z,25.23
2022-11-22T13:06:36.923Z,24.73
2022-11-22T13:09:07.472Z,25.23
2022-11-22T13:11:41.208Z,26.40
2022-11-22T13:14:19.340Z,25.70
2022-11-22T13:16:49.463Z,23.50
2022-11-22T13:19:17.061Z,26.43
2022-11-22T13:22:04.899Z,22.67
2022-11-22T13:24:47.885Z,25.23
2022-11-22T13:27:21.622Z,23.30
2022-11-22T13:29:49.948Z,61.60
2022-11-22T13:32:19.988Z,31.17
2022-11-22T13:35:11.963Z,49.97
2022-11-22T13:37:43.952Z,34.83
2022-11-22T13:40:23.034Z,34.67
2022-11-22T13:43:22.376Z,25.93
2022-11-22T13:46:16.147Z,25.50
2022-11-22T13:48:42.623Z,25.60
2022-11-22T13:51:15.278Z,24.13
2022-11-22T13:53:44.298Z,27.97
2022-11-22T13:56:16.969Z,24.80
2022-11-22T13:58:52.291Z,24.63
2022-11-22T14:01:34.743Z,25.93
2022-11-22T14:04:18.021Z,26.77
2022-11-22T14:06:54.698Z,26.57
2022-11-22T14:09:37.469Z,25.37
2022-11-22T14:12:20.538Z,25.10
2022-11-22T14:15:12.007Z,26.50
2022-11-22T14:17:48.066Z,27.13
2022-11-22T14:21:00.351Z,24.70
2022-11-22T14:23:49.123Z,27.37
2022-11-22T14:26:25.133Z,25.23
2022-11-22T14:29:11.607Z,29.57
2022-11-22T14:31:39.227Z,26.77
2022-11-22T14:34:16.233Z,28.60
2022-11-22T14:36:43.852Z,26.63
2022-11-22T14:39:44.879Z,27.90
2022-11-22T14:42:38.892Z,25.50
2022-11-22T14:45:10.202Z,27.13
2022-11-22T14:48:04.515Z,28.50
2022-11-22T14:50:37.307Z,25.75
2022-11-22T14:53:28.124Z,25.63
2022-11-22T14:56:03.825Z,29.10
2022-11-22T14:58:31.439Z,30.03
2022-11-22T15:01:24.553Z,26.37
2022-11-22T15:09:14.763Z,25.63
2022-11-22T15:09:24.043Z,25.67
2022-11-22T15:10:08.381Z,29.07
2022-11-22T15:13:08.525Z,27.07
2022-11-22T15:59:40.404Z,32.20
2022-11-22T16:02:13.609Z,31.27
2022-11-22T16:04:47.134Z,31.43
2022-11-22T16:07:29.291Z,27.98
2022-11-22T16:09:56.017Z,30.03
2022-11-22T16:12:35.591Z,27.13
2022-11-22T16:15:36.128Z,27.87
2022-11-22T16:18:10.431Z,29.47
2022-11-22T16:20:38.975Z,29.25
2022-11-22T16:23:15.082Z,27.77
2022-11-22T16:25:44.517Z,29.27
2022-11-22T16:28:21.542Z,29.30
2022-11-22T16:30:48.249Z,30.00
2022-11-22T16:33:15.000Z,32.07
2022-11-22T16:35:41.607Z,30.40
2022-11-22T16:38:08.172Z,30.73
2022-11-22T16:40:42.831Z,31.20
2022-11-22T16:43:15.313Z,32.53
2022-11-22T16:45:42.375Z,30.53
2022-11-22T16:48:37.378Z,31.73
2022-11-22T16:53:47.650Z,30.80
2022-11-22T16:56:22.632Z,35.10
2022-11-22T16:58:50.499Z,29.60
2022-11-22T17:01:22.129Z,30.67
2022-11-22T17:03:50.573Z,33.10
2022-11-22T17:06:20.348Z,28.80
2022-11-22T17:08:48.379Z,30.93
2022-11-22T17:11:17.049Z,32.97
2022-11-22T17:13:43.682Z,31.10
2022-11-22T17:16:11.446Z,33.53
2022-11-22T17:18:38.922Z,32.07
2022-11-22T17:21:10.484Z,27.80
2022-11-22T17:23:38.437Z,31.93
2022-11-22T17:26:05.708Z,29.33
2022-11-22T17:28:32.299Z,30.60
2022-11-22T17:30:59.642Z,28.73
2022-11-22T17:33:26.277Z,30.13
2022-11-22T17:35:53.033Z,31.30
2022-11-22T17:38:19.673Z,29.53
2022-11-22T17:40:46.396Z,29.10
2022-11-22T17:43:13.338Z,31.37
2022-11-22T17:45:42.908Z,29.73
2022-11-22T17:48:15.891Z,28.63
2022-11-22T17:50:42.487Z,28.63
2022-11-22T17:53:09.065Z,28.63
2022-11-22T17:56:08.484Z,29.73
2022-11-22T17:58:24.494Z,30.90
2022-11-22T18:00:51.074Z,30.10
2022-11-22T18:03:17.682Z,30.80
2022-11-22T18:05:44.401Z,31.50
2022-11-22T18:08:11.027Z,31.60
2022-11-22T18:10:38.485Z,29.80
2022-11-22T18:13:20.878Z,32.40
2022-11-22T18:15:52.365Z,34.93
2022-11-22T18:18:48.537Z,30.97
2022-11-22T18:21:11.420Z,28.47
2022-11-22T18:23:41.856Z,29.73
2022-11-22T18:29:32.582Z,30.83
2022-11-22T18:31:54.035Z,27.40
2022-11-22T18:34:24.384Z,29.97
2022-11-22T18:37:06.766Z,30.83
2022-11-22T18:39:36.278Z,30.17
2022-11-22T18:42:10.061Z,30.47
2022-11-22T18:44:36.671Z,30.80
2022-11-22T18:47:03.460Z,31.20
2022-11-22T18:49:30.573Z,31.70
2022-11-22T18:51:57.658Z,31.87
2022-11-22T18:54:24.490Z,33.40
2022-11-22T18:56:51.550Z,30.40
2022-11-22T18:59:18.641Z,29.70
2022-11-22T19:01:45.344Z,26.30
2022-11-22T19:04:14.120Z,38.63
2022-11-22T19:06:41.937Z,31.50
2022-11-22T19:09:09.131Z,28.10
2022-11-22T19:11:35.829Z,31.97
2022-11-22T19:14:02.444Z,29.40
2022-11-22T19:16:30.281Z,31.67
2022-11-22T19:18:57.738Z,27.13
2022-11-22T19:21:26.727Z,28.13
2022-11-22T19:23:53.378Z,27.47
2022-11-22T19:26:21.964Z,28.80
2022-11-22T19:28:49.200Z,29.03
2022-11-22T19:31:20.805Z,28.60
2022-11-22T19:33:47.694Z,28.53
2022-11-22T19:36:16.704Z,28.57
2022-11-22T19:38:43.772Z,28.87
2022-11-22T19:41:11.758Z,27.00
2022-11-22T19:43:39.500Z,29.13
2022-11-22T19:46:06.733Z,28.37
2022-11-22T19:48:35.382Z,28.43
2022-11-22T19:51:09.447Z,25.17
2022-11-22T19:53:36.186Z,26.33
2022-11-22T19:56:23.324Z,29.30
2022-11-22T19:58:52.125Z,27.50
2022-11-22T20:01:19.639Z,25.67
2022-11-22T20:03:46.871Z,28.33
2022-11-22T20:06:14.578Z,29.33
2022-11-22T20:08:41.717Z,25.33
2022-11-22T20:11:11.145Z,26.40
2022-11-22T20:13:39.645Z,25.40
2022-11-22T20:16:17.667Z,28.17
2022-11-22T20:18:44.370Z,28.03
2022-11-22T20:21:11.131Z,27.23
2022-11-22T20:23:38.512Z,28.33
2022-11-22T20:26:13.063Z,28.10
2022-11-22T20:28:40.825Z,31.63
2022-11-22T20:31:09.189Z,29.13
2022-11-22T20:33:37.084Z,25.90
2022-11-22T20:36:15.006Z,26.80
2022-11-22T20:38:42.557Z,25.77
2022-11-22T20:41:11.060Z,28.30
2022-11-22T20:43:38.252Z,26.40
2022-11-22T20:46:05.912Z,29.23
2022-11-22T20:48:33.181Z,26.40
2022-11-22T20:51:01.645Z,28.43
2022-11-22T20:53:31.441Z,25.43
2022-11-22T20:55:58.078Z,26.50
2022-11-22T20:58:26.160Z,26.40
2022-11-22T21:00:56.156Z,28.27
2022-11-22T21:03:23.829Z,27.67
2022-11-22T21:05:52.389Z,28.07
2022-11-22T21:08:19.993Z,25.50
2022-11-22T21:10:46.858Z,27.27
2022-11-22T21:13:13.955Z,28.20
2022-11-22T21:15:40.790Z,27.97
2022-11-22T21:18:24.712Z,28.80
2022-11-22T21:21:01.468Z,24.90
2022-11-22T21:23:28.066Z,26.77
2022-11-22T21:25:55.130Z,26.00
2022-11-22T21:28:22.254Z,25.80
2022-11-22T21:30:56.138Z,26.53
2022-11-22T21:33:23.193Z,25.73
2022-11-22T21:35:51.873Z,27.10
2022-11-22T21:38:19.287Z,28.73
2022-11-22T21:40:53.820Z,25.57
2022-11-22T21:43:25.594Z,25.47
2022-11-22T21:45:54.291Z,26.27
2022-11-22T21:48:23.505Z,27.93
2022-11-22T21:50:55.538Z,28.47
2022-11-22T21:53:24.638Z,26.00
2022-11-22T21:55:53.582Z,27.77
2022-11-22T21:58:21.416Z,26.60
2022-11-22T22:00:49.383Z,26.83
2022-11-22T22:03:19.892Z,25.80
2022-11-22T22:05:54.516Z,27.27
2022-11-22T22:08:21.317Z,25.60
2022-11-22T22:10:49.595Z,27.00
2022-11-22T22:13:17.268Z,27.13
2022-11-22T22:15:43.888Z,26.83
2022-11-22T22:18:10.510Z,25.53
2022-11-22T22:20:37.337Z,26.73
2022-11-22T22:23:04.127Z,25.70
2022-11-22T22:25:30.776Z,26.37
2022-11-22T22:27:58.564Z,24.50
2022-11-22T22:30:25.449Z,26.47
2022-11-22T22:32:52.513Z,24.97
2022-11-22T22:35:23.146Z,26.17
2022-11-22T22:37:49.977Z,27.30
2022-11-22T22:40:17.231Z,27.57
2022-11-22T22:42:43.868Z,27.53
2022-11-22T22:45:11.087Z,29.30
2022-11-22T22:47:38.098Z,25.20
2022-11-22T22:50:05.003Z,28.30
2022-11-22T22:52:34.886Z,28.07
2022-11-22T22:55:01.548Z,25.80
2022-11-22T22:57:28.900Z,28.00
2022-11-22T22:59:55.758Z,27.47
2022-11-22T23:02:22.584Z,28.17
2022-11-22T23:04:49.334Z,29.47
2022-11-22T23:07:16.100Z,26.90
2022-11-22T23:09:42.760Z,28.83
2022-11-22T23:12:12.338Z,28.50
2022-11-22T23:14:40.169Z,28.27
2022-11-22T23:17:10.186Z,26.87
2022-11-22T23:19:37.301Z,25.20
2022-11-22T23:22:04.512Z,26.17
2022-11-22T23:24:32.444Z,28.90
2022-11-22T23:27:01.699Z,26.90
2022-11-22T23:29:28.598Z,29.90
2022-11-22T23:31:55.637Z,29.90
2022-11-22T23:34:25.219Z,31.83
2022-11-22T23:36:52.100Z,28.20
2022-11-22T23:39:19.080Z,28.10
2022-11-22T23:41:45.845Z,26.60
2022-11-22T23:44:12.840Z,25.20
2022-11-22T23:46:39.730Z,27.53
2022-11-22T23:49:06.954Z,29.87
2022-11-22T23:51:34.973Z,28.47
2022-11-22T23:54:04.412Z,27.37
2022-11-22T23:56:32.590Z,30.47
2022-11-22T23:58:59.871Z,26.23
